Time;durP1;ratioP1;P1;durP2;ratioP2;P2;SDS_P1;SDS_P2;PMS_P1;PMS_P2;Temp;Humidity;BMP_temperature;BMP_pressure;BME280_temperature;BME280_humidity;BME280_pressure;Samples;Min_cycle;Max_cycle;Signal;HPM_P1;HPM_P2
2021/04/23 00:08:15;;;;;;;81.45;42.17;;;2.50;99.90;;;;;;21075756;28;20040;-49
2021/04/23 00:18:18;;;;;;;64.50;35.38;;;2.40;99.90;;;;;;21053370;28;20102;-44
2021/04/23 00:28:20;;;;;;;61.17;36.05;;;2.50;99.90;;;;;;20990442;28;20448;-43
2021/04/23 00:38:25;;;;;;;64.20;34.95;;;2.60;99.90;;;;;;20990463;28;20032;-43
2021/04/23 00:48:31;;;;;;;71.28;38.63;;;2.70;99.90;;;;;;20989715;28;20036;-43
2021/04/23 00:58:35;;;;;;;62.17;35.80;;;2.70;99.90;;;;;;20989672;28;20086;-43
2021/04/23 01:08:37;;;;;;;62.20;34.15;;;2.60;99.90;;;;;;20977073;28;20055;-45
2021/04/23 01:18:40;;;;;;;55.85;31.80;;;2.80;99.90;;;;;;21005192;28;20060;-46
2021/04/23 01:28:45;;;;;;;66.72;35.47;;;2.70;99.90;;;;;;21004637;28;20098;-42
2021/04/23 01:38:49;;;;;;;69.75;35.65;;;2.40;99.90;;;;;;21003676;28;20033;-48
2021/04/23 01:48:51;;;;;;;69.88;37.38;;;2.20;99.90;;;;;;21002917;28;20041;-44
2021/04/23 01:58:52;;;;;;;73.30;38.40;;;2.00;99.90;;;;;;21061251;28;20040;-43
2021/04/23 02:08:54;;;;;;;91.28;43.40;;;2.10;99.90;;;;;;21085498;28;20024;-43
2021/04/23 02:18:56;;;;;;;90.30;44.38;;;2.00;99.90;;;;;;21056904;28;20082;-45
2021/04/23 02:28:58;;;;;;;81.18;41.35;;;2.30;99.90;;;;;;21000067;28;20110;-43
2021/04/23 02:39:00;;;;;;;79.00;38.28;;;2.40;99.90;;;;;;20999305;28;20028;-43
2021/04/23 02:49:04;;;;;;;76.40;37.42;;;2.20;99.90;;;;;;20998343;28;20089;-49
2021/04/23 02:59:07;;;;;;;62.58;32.55;;;1.90;99.90;;;;;;20997676;28;20078;-46
2021/04/23 03:09:09;;;;;;;79.03;36.42;;;1.60;99.90;;;;;;20996872;28;20445;-43
2021/04/23 03:19:15;;;;;;;75.82;38.10;;;1.60;99.90;;;;;;21007043;28;20044;-43
2021/04/23 03:29:18;;;;;;;90.22;41.33;;;1.60;99.90;;;;;;21077917;28;20382;-45
2021/04/23 03:39:20;;;;;;;64.82;32.38;;;1.60;99.90;;;;;;21078462;28;20393;-43
2021/04/23 03:49:22;;;;;;;49.58;26.70;;;1.50;99.90;;;;;;21077405;28;20040;-43
2021/04/23 03:59:24;;;;;;;63.83;33.75;;;1.40;99.90;;;;;;21076667;28;20452;-43
2021/04/23 04:09:25;;;;;;;53.55;27.58;;;1.40;99.90;;;;;;21075578;28;20040;-45
2021/04/23 04:19:27;;;;;;;49.13;26.00;;;1.40;99.90;;;;;;21043547;28;20045;-43
2021/04/23 04:29:29;;;;;;;47.67;26.20;;;1.50;99.90;;;;;;20990635;28;20040;-43
2021/04/23 04:39:31;;;;;;;59.85;31.45;;;1.60;99.90;;;;;;20990133;28;20085;-43
2021/04/23 04:49:32;;;;;;;54.47;28.20;;;1.60;99.90;;;;;;20989968;28;20041;-45
2021/04/23 04:59:34;;;;;;;55.38;28.83;;;1.90;99.90;;;;;;20989504;28;20032;-43
2021/04/23 05:09:36;;;;;;;48.78;27.30;;;2.10;99.90;;;;;;20989294;28;20090;-44
2021/04/23 05:19:38;;;;;;;71.95;36.70;;;2.40;99.90;;;;;;21021216;28;20106;-44
2021/04/23 05:29:40;;;;;;;70.05;37.50;;;2.80;99.90;;;;;;21071781;28;20044;-43
2021/04/23 05:39:43;;;;;;;72.50;39.55;;;3.00;99.90;;;;;;21071367;28;20089;-43
2021/04/23 05:49:45;;;;;;;66.57;34.75;;;3.30;99.90;;;;;;21070930;28;20032;-43
2021/04/23 05:59:47;;;;;;;55.28;33.08;;;3.40;99.90;;;;;;21017273;28;20099;-44
2021/04/23 06:09:49;;;;;;;56.80;31.98;;;3.80;99.90;;;;;;21001498;28;20105;-43
2021/04/23 06:19:51;;;;;;;58.80;31.92;;;4.40;99.90;;;;;;21035362;28;20562;-44
2021/04/23 06:29:53;;;;;;;40.78;25.13;;;4.80;99.90;;;;;;21083816;28;20314;-44
2021/04/23 06:39:54;;;;;;;28.88;21.30;;;6.10;99.90;;;;;;21083008;28;20040;-47
2021/04/23 06:49:56;;;;;;;26.88;21.88;;;9.70;99.90;;;;;;21083469;28;20458;-45
2021/04/23 06:59:58;;;;;;;24.45;20.35;;;11.20;99.90;;;;;;21081422;28;20109;-46
2021/04/23 07:10:00;;;;;;;22.05;19.05;;;12.30;99.90;;;;;;21080171;28;20040;-48
2021/04/23 07:20:07;;;;;;;22.08;17.88;;;13.00;99.90;;;;;;21043408;28;20583;-45
2021/04/23 07:30:13;;;;;;;17.85;15.95;;;13.80;99.90;;;;;;20995841;28;20040;-47
2021/04/23 07:40:18;;;;;;;19.27;14.52;;;13.80;99.90;;;;;;20994551;28;20037;-50
2021/04/23 07:50:23;;;;;;;15.30;13.05;;;13.70;99.90;;;;;;20993553;28;20036;-45
2021/04/23 08:00:26;;;;;;;18.48;14.52;;;14.30;99.90;;;;;;20993323;28;20429;-49
2021/04/23 08:10:31;;;;;;;15.95;13.75;;;15.00;98.20;;;;;;20992188;28;20430;-46
2021/04/23 08:20:34;;;;;;;14.95;13.10;;;15.50;96.00;;;;;;21031433;28;20081;-46
2021/04/23 08:30:36;;;;;;;14.27;12.55;;;15.90;93.60;;;;;;21008689;28;20036;-51
2021/04/23 08:40:38;;;;;;;16.08;12.95;;;16.10;93.50;;;;;;20990325;28;20086;-47
2021/04/23 08:50:42;;;;;;;14.20;11.60;;;16.40;91.50;;;;;;20991151;28;20497;-46
2021/04/23 09:00:44;;;;;;;13.55;11.25;;;16.50;91.40;;;;;;20989438;28;20066;-46
2021/04/23 09:10:46;;;;;;;10.00;8.80;;;17.00;84.60;;;;;;20989185;28;20037;-48
2021/04/23 09:20:59;;;;;;;12.90;10.05;;;17.20;80.20;;;;;;21031287;28;20044;-48
2021/04/23 09:31:32;;;;;;;11.82;9.05;;;17.20;77.20;;;;;;21079915;28;20386;-49
2021/04/23 09:41:35;;;;;;;12.68;10.85;;;17.10;77.30;;;;;;21086751;28;20052;-49
2021/04/23 09:51:37;;;;;;;22.35;17.80;;;17.30;81.00;;;;;;21086423;28;20388;-49
2021/04/23 10:02:04;;;;;;;21.80;18.38;;;16.30;91.40;;;;;;21085347;28;20040;-45
2021/04/23 10:12:06;;;;;;;25.52;18.80;;;15.10;92.50;;;;;;21084572;28;20105;-45
2021/04/23 10:22:08;;;;;;;27.15;21.10;;;13.80;95.90;;;;;;21030259;28;20032;-44
2021/04/23 10:32:11;;;;;;;26.58;19.67;;;13.00;98.40;;;;;;20999134;28;20049;-46
2021/04/23 10:42:49;;;;;;;29.70;21.80;;;12.50;99.90;;;;;;20963773;28;20082;-44
2021/04/23 10:52:57;;;;;;;31.58;23.33;;;11.90;99.90;;;;;;20997514;28;20051;-44
2021/04/23 11:03:21;;;;;;;33.05;24.55;;;10.90;99.90;;;;;;20996959;28;20045;-49
2021/04/23 11:13:24;;;;;;;36.47;26.80;;;9.90;99.90;;;;;;20995792;28;20474;-45
2021/04/23 11:24:04;;;;;;;36.72;26.00;;;9.50;99.90;;;;;;20994864;28;20032;-46
2021/04/23 11:34:37;;;;;;;35.45;24.77;;;9.90;99.90;;;;;;20994164;28;20101;-45
2021/04/23 11:44:51;;;;;;;32.63;23.40;;;11.70;99.90;;;;;;20993472;28;20148;-45
2021/04/23 11:54:54;;;;;;;27.33;20.55;;;14.50;99.90;;;;;;20991383;28;20097;-46
2021/04/23 12:04:56;;;;;;;29.05;22.90;;;16.70;98.50;;;;;;20991710;28;20037;-51
2021/04/23 12:15:07;;;;;;;27.60;22.17;;;17.00;97.70;;;;;;20990679;28;20044;-45
2021/04/23 12:25:32;;;;;;;32.35;23.88;;;14.80;97.90;;;;;;21048748;28;20032;-44
2021/04/23 12:35:42;;;;;;;34.33;24.25;;;12.50;99.90;;;;;;20989824;28;20040;-47
2021/04/23 12:45:56;;;;;;;28.02;21.80;;;11.90;99.90;;;;;;20989024;28;20040;-44
2021/04/23 12:55:58;;;;;;;25.98;20.33;;;12.50;99.90;;;;;;20989084;28;20122;-46
2021/04/23 13:06:00;;;;;;;28.88;21.63;;;14.30;99.90;;;;;;21006651;28;20078;-45
2021/04/23 13:16:04;;;;;;;23.42;19.02;;;15.40;99.90;;;;;;21018476;28;20048;-46
2021/04/23 13:26:09;;;;;;;20.02;17.38;;;17.10;95.40;;;;;;21099094;28;20043;-48
2021/04/23 13:36:18;;;;;;;23.50;19.27;;;17.30;94.30;;;;;;21080836;28;20054;-45
2021/04/23 13:46:21;;;;;;;23.10;19.38;;;15.60;95.00;;;;;;21098762;28;20028;-44
2021/04/23 13:56:26;;;;;;;24.58;20.38;;;13.80;98.70;;;;;;21097831;28;20035;-47
2021/04/23 14:06:28;;;;;;;27.50;20.83;;;13.50;99.90;;;;;;21097731;28;20073;-45
2021/04/23 14:16:31;;;;;;;24.85;19.52;;;14.10;99.90;;;;;;21083124;28;20498;-47
2021/04/23 14:26:33;;;;;;;21.85;19.30;;;14.50;99.90;;;;;;20999764;28;20543;-47
2021/04/23 14:36:36;;;;;;;21.90;17.70;;;15.30;99.10;;;;;;20999059;28;20044;-46
2021/04/23 14:46:38;;;;;;;21.35;17.30;;;15.90;97.80;;;;;;20998146;28;20032;-45
2021/04/23 14:56:40;;;;;;;23.90;18.20;;;16.20;97.50;;;;;;20997550;28;20029;-48
2021/04/23 15:06:42;;;;;;;20.10;15.82;;;16.10;95.10;;;;;;20996597;28;20037;-47
2021/04/23 15:16:44;;;;;;;21.13;17.27;;;16.20;94.70;;;;;;21004033;28;20048;-45
2021/04/23 15:26:45;;;;;;;23.83;18.90;;;15.60;95.30;;;;;;21077550;28;20036;-48
2021/04/23 15:36:47;;;;;;;24.85;18.73;;;14.10;97.30;;;;;;21059872;28;20032;-45
2021/04/23 15:46:49;;;;;;;27.52;19.30;;;13.00;99.90;;;;;;21077296;28;20040;-44
2021/04/23 15:56:50;;;;;;;26.70;20.17;;;12.00;99.90;;;;;;21058074;28;20036;-48
2021/04/23 16:06:52;;;;;;;26.42;19.17;;;10.90;99.90;;;;;;21075449;28;20032;-48
2021/04/23 16:16:54;;;;;;;28.33;20.10;;;10.30;99.90;;;;;;21064699;28;20345;-44
2021/04/23 16:26:56;;;;;;;25.70;19.60;;;9.70;99.90;;;;;;20972339;28;20037;-44
2021/04/23 16:36:59;;;;;;;25.35;19.60;;;9.40;99.90;;;;;;20989587;28;20041;-47
2021/04/23 16:47:01;;;;;;;27.67;19.02;;;9.20;99.90;;;;;;20989363;28;20044;-44
2021/04/23 16:57:03;;;;;;;24.52;18.75;;;9.10;99.90;;;;;;20989481;28;20036;-44
2021/04/23 17:07:05;;;;;;;23.85;18.45;;;8.90;99.90;;;;;;20988650;28;20429;-47
2021/04/23 17:17:07;;;;;;;29.17;20.65;;;8.70;99.90;;;;;;20981815;28;20044;-45
2021/04/23 17:27:12;;;;;;;29.98;21.23;;;8.50;99.90;;;;;;21071348;28;20538;-44
2021/04/23 17:37:14;;;;;;;33.08;22.15;;;8.20;99.90;;;;;;21070964;28;20074;-46
2021/04/23 17:47:17;;;;;;;29.52;20.02;;;7.90;99.90;;;;;;21070897;28;20040;-45
2021/04/23 17:57:19;;;;;;;30.83;20.10;;;7.70;99.90;;;;;;21085839;28;20377;-44
2021/04/23 18:07:21;;;;;;;27.92;20.08;;;7.50;99.90;;;;;;21084885;28;20040;-48
2021/04/23 18:17:23;;;;;;;33.00;21.08;;;7.40;99.90;;;;;;21070690;28;20075;-44
2021/04/23 18:27:25;;;;;;;29.48;20.77;;;6.90;99.90;;;;;;21000705;28;20036;-44
2021/04/23 18:37:27;;;;;;;35.03;23.25;;;6.50;99.90;;;;;;20999097;28;20304;-44
2021/04/23 18:47:29;;;;;;;34.40;21.40;;;6.30;99.90;;;;;;20997591;28;20093;-45
2021/04/23 18:57:31;;;;;;;34.58;22.58;;;6.10;99.90;;;;;;20979739;28;20066;-45
2021/04/23 19:07:34;;;;;;;36.30;24.80;;;5.80;99.90;;;;;;20996525;28;20036;-43
2021/04/23 19:17:41;;;;;;;33.45;22.27;;;5.50;99.90;;;;;;21011679;28;20113;-47
2021/04/23 19:27:44;;;;;;;39.05;25.77;;;5.40;99.90;;;;;;21078925;28;20097;-43
2021/04/23 19:37:49;;;;;;;39.88;24.90;;;5.20;99.90;;;;;;21078334;28;20043;-45
2021/04/23 19:47:52;;;;;;;38.42;24.38;;;5.10;99.90;;;;;;21077312;28;20036;-47
2021/04/23 19:57:54;;;;;;;36.83;24.08;;;4.90;99.90;;;;;;21076639;28;20032;-46
2021/04/23 20:07:56;;;;;;;38.03;24.88;;;4.80;99.90;;;;;;21075614;28;20040;-43
2021/04/23 20:17:59;;;;;;;40.42;25.00;;;4.60;99.90;;;;;;21055092;28;20074;-45
2021/04/23 20:28:01;;;;;;;43.58;25.85;;;4.60;99.90;;;;;;20990192;28;20098;-44
2021/04/23 20:38:05;;;;;;;46.05;26.58;;;4.50;99.90;;;;;;20990086;28;20066;-44
2021/04/23 20:48:09;;;;;;;42.72;25.75;;;4.50;99.90;;;;;;20989861;28;20036;-43
2021/04/23 20:58:11;;;;;;;45.70;26.55;;;4.40;99.90;;;;;;20970881;28;20093;-44
2021/04/23 21:08:13;;;;;;;44.85;26.58;;;4.40;99.90;;;;;;20988297;28;20040;-43
2021/04/23 21:18:16;;;;;;;46.17;28.75;;;4.40;99.90;;;;;;20988045;28;20052;-44
2021/04/23 21:28:23;;;;;;;48.70;29.15;;;4.20;99.90;;;;;;20982273;28;20052;-45
2021/04/23 21:38:25;;;;;;;44.63;26.27;;;4.10;99.90;;;;;;21003683;28;20032;-43
2021/04/23 21:48:27;;;;;;;55.78;31.30;;;4.00;99.90;;;;;;20984897;28;20029;-44
2021/04/23 21:58:29;;;;;;;48.65;28.58;;;3.80;99.90;;;;;;21057967;28;20493;-46
2021/04/23 22:08:30;;;;;;;53.60;29.15;;;3.70;99.90;;;;;;21085225;28;20062;-44
2021/04/23 22:18:32;;;;;;;58.92;32.08;;;3.70;99.90;;;;;;21060542;28;20430;-44
2021/04/23 22:28:34;;;;;;;61.05;33.28;;;3.60;99.90;;;;;;21000064;28;20040;-43
2021/04/23 22:38:36;;;;;;;58.67;32.20;;;3.50;99.90;;;;;;20998530;28;20106;-45
2021/04/23 22:48:38;;;;;;;52.17;28.98;;;3.40;99.90;;;;;;20998310;28;20447;-43
2021/04/23 22:58:41;;;;;;;56.92;29.38;;;3.30;99.90;;;;;;20997757;28;20434;-43
2021/04/23 23:08:43;;;;;;;51.67;30.60;;;3.20;99.90;;;;;;20996659;28;20414;-45
2021/04/23 23:18:45;;;;;;;50.58;27.95;;;3.20;99.90;;;;;;21020227;28;20044;-43
2021/04/23 23:28:47;;;;;;;45.25;25.73;;;3.30;99.90;;;;;;21078815;28;20052;-43
2021/04/23 23:38:48;;;;;;;45.15;27.52;;;3.50;99.90;;;;;;21078011;28;20032;-43
2021/04/23 23:48:50;;;;;;;33.85;21.77;;;3.30;99.90;;;;;;21076295;28;20389;-47
2021/04/23 23:58:52;;;;;;;43.63;24.15;;;3.10;99.90;;;;;;21076519;28;20032;-43
